Time;durP1;ratioP1;P1;durP2;ratioP2;P2;SDS_P1;SDS_P2;PMS_P1;PMS_P2;Temp;Humidity;BMP_temperature;BMP_pressure;BME280_temperature;BME280_humidity;BME280_pressure;Samples;Min_cycle;Max_cycle;Signal;HPM_P1;HPM_P2
2021/07/17 00:01:27;;;;;;;9.30;6.75;;;;;;;;;;5028605;28;20771;-69
2021/07/17 00:03:52;;;;;;;7.57;5.75;;;;;;;;;;5029872;28;20087;-69
2021/07/17 00:06:18;;;;;;;7.88;5.55;;;;;;;;;;5039910;28;20511;-69
2021/07/17 00:08:44;;;;;;;9.77;5.90;;;;;;;;;;5034206;28;20017;-68
2021/07/17 00:11:09;;;;;;;10.43;6.63;;;;;;;;;;5029614;28;20773;-68
2021/07/17 00:13:34;;;;;;;9.98;6.20;;;;;;;;;;5020591;28;20057;-69
2021/07/17 00:15:59;;;;;;;8.85;6.30;;;;;;;;;;5028618;28;20052;-68
2021/07/17 00:18:24;;;;;;;8.65;6.68;;;;;;;;;;5027829;28;20029;-69
2021/07/17 00:20:50;;;;;;;8.55;6.90;;;;;;;;;;5026398;28;20024;-69
2021/07/17 00:23:16;;;;;;;9.70;5.93;;;;;;;;;;5035074;28;20029;-69
2021/07/17 00:25:43;;;;;;;8.40;6.80;;;;;;;;;;5033821;28;20080;-68
2021/07/17 00:28:08;;;;;;;8.32;6.80;;;;;;;;;;5026894;28;20117;-68
2021/07/17 00:30:34;;;;;;;11.43;7.07;;;;;;;;;;5035200;28;20029;-69
2021/07/17 00:32:59;;;;;;;8.98;7.20;;;;;;;;;;5031450;28;20033;-68
2021/07/17 00:35:24;;;;;;;9.93;6.90;;;;;;;;;;5038070;28;20361;-68
2021/07/17 00:37:49;;;;;;;9.63;6.95;;;;;;;;;;5028653;28;20068;-68
2021/07/17 00:40:19;;;;;;;10.43;7.22;;;;;;;;;;5032152;28;20029;-68
2021/07/17 00:42:44;;;;;;;10.50;7.30;;;;;;;;;;5037180;28;20057;-69
2021/07/17 00:45:10;;;;;;;8.82;6.20;;;;;;;;;;5041334;28;20459;-69
2021/07/17 00:47:36;;;;;;;8.05;6.97;;;;;;;;;;5033606;28;20326;-69
2021/07/17 00:50:02;;;;;;;11.27;6.47;;;;;;;;;;5038976;28;20029;-68
2021/07/17 00:52:27;;;;;;;6.95;6.25;;;;;;;;;;5031290;28;20026;-69
2021/07/17 00:54:52;;;;;;;10.23;7.73;;;;;;;;;;5032906;28;20020;-70
2021/07/17 00:57:18;;;;;;;7.10;6.30;;;;;;;;;;5031021;28;20272;-68
2021/07/17 00:59:46;;;;;;;8.45;6.60;;;;;;;;;;5029255;28;20095;-69
2021/07/17 01:02:12;;;;;;;8.98;6.80;;;;;;;;;;5043605;28;20021;-69
2021/07/17 01:04:38;;;;;;;9.15;7.10;;;;;;;;;;5037090;28;20059;-69
2021/07/17 01:07:03;;;;;;;8.57;6.93;;;;;;;;;;5027098;28;20097;-69
2021/07/17 01:09:28;;;;;;;7.63;6.38;;;;;;;;;;5028191;28;20025;-68
2021/07/17 01:11:57;;;;;;;8.07;6.35;;;;;;;;;;5029692;28;20029;-69
2021/07/17 01:14:22;;;;;;;9.38;6.70;;;;;;;;;;5034059;28;20017;-69
2021/07/17 01:16:47;;;;;;;8.30;6.13;;;;;;;;;;5024519;28;20567;-68
2021/07/17 01:19:13;;;;;;;11.10;7.22;;;;;;;;;;5030216;28;20021;-69
2021/07/17 01:21:38;;;;;;;8.88;5.97;;;;;;;;;;5039023;28;20529;-69
2021/07/17 01:24:04;;;;;;;11.52;7.47;;;;;;;;;;5041071;28;20091;-68
2021/07/17 01:26:29;;;;;;;9.18;6.57;;;;;;;;;;5031002;28;20017;-69
2021/07/17 01:28:55;;;;;;;10.57;6.50;;;;;;;;;;5021874;28;20094;-69
2021/07/17 01:31:20;;;;;;;13.93;7.60;;;;;;;;;;5026974;28;20304;-68
2021/07/17 01:33:46;;;;;;;7.75;6.40;;;;;;;;;;5039132;28;20025;-68
2021/07/17 01:36:11;;;;;;;8.70;6.75;;;;;;;;;;5037331;28;20037;-68
2021/07/17 01:38:36;;;;;;;8.70;6.82;;;;;;;;;;5034529;28;20037;-69
2021/07/17 01:41:02;;;;;;;11.20;7.20;;;;;;;;;;5028562;28;20414;-68
2021/07/17 01:43:27;;;;;;;9.02;7.18;;;;;;;;;;5031127;28;20049;-69
2021/07/17 01:45:56;;;;;;;10.13;7.50;;;;;;;;;;5037394;28;20112;-69
2021/07/17 01:48:22;;;;;;;10.55;7.25;;;;;;;;;;5029284;28;20111;-69
2021/07/17 01:50:47;;;;;;;10.37;7.10;;;;;;;;;;5030635;28;20118;-68
2021/07/17 01:53:12;;;;;;;7.97;6.32;;;;;;;;;;5028735;28;20272;-69
2021/07/17 01:55:38;;;;;;;9.75;7.72;;;;;;;;;;5027209;28;20013;-69
2021/07/17 01:58:03;;;;;;;11.80;7.63;;;;;;;;;;5035636;28;20182;-68
2021/07/17 02:00:29;;;;;;;11.75;7.50;;;;;;;;;;5030627;28;20036;-69
2021/07/17 02:02:54;;;;;;;11.18;7.13;;;;;;;;;;5033309;28;20025;-68
2021/07/17 02:05:20;;;;;;;9.80;7.85;;;;;;;;;;5035017;28;20101;-71
2021/07/17 02:07:45;;;;;;;8.40;7.30;;;;;;;;;;5031992;28;20025;-69
2021/07/17 02:10:14;;;;;;;9.77;7.88;;;;;;;;;;5033909;28;20045;-68
2021/07/17 02:12:54;;;;;;;12.18;7.57;;;;;;;;;;5030183;28;20029;-69
2021/07/17 02:15:19;;;;;;;12.05;7.78;;;;;;;;;;5024710;28;20042;-69
2021/07/17 02:17:45;;;;;;;9.15;7.32;;;;;;;;;;5032086;28;20022;-68
2021/07/17 02:20:11;;;;;;;10.68;7.55;;;;;;;;;;5034180;28;20485;-68
2021/07/17 02:22:36;;;;;;;13.57;8.75;;;;;;;;;;5029945;28;20424;-69
2021/07/17 02:25:01;;;;;;;11.23;8.05;;;;;;;;;;5039008;28;20032;-68
2021/07/17 02:27:26;;;;;;;12.95;8.48;;;;;;;;;;5029849;28;20080;-68
2021/07/17 02:29:52;;;;;;;10.60;8.40;;;;;;;;;;5028176;28;20388;-69
2021/07/17 02:32:17;;;;;;;10.38;8.40;;;;;;;;;;5036182;28;20060;-69
2021/07/17 02:34:42;;;;;;;11.60;8.45;;;;;;;;;;5030024;28;20021;-67
2021/07/17 02:37:07;;;;;;;13.40;8.70;;;;;;;;;;5023985;28;20094;-68
2021/07/17 02:39:32;;;;;;;11.40;8.77;;;;;;;;;;5029708;28;20295;-68
2021/07/17 02:41:57;;;;;;;11.77;8.13;;;;;;;;;;5036936;28;20275;-68
2021/07/17 02:44:23;;;;;;;12.07;8.57;;;;;;;;;;5027383;28;20303;-68
2021/07/17 02:46:48;;;;;;;11.83;8.93;;;;;;;;;;5041135;28;20465;-68
2021/07/17 02:49:15;;;;;;;12.30;8.15;;;;;;;;;;5035871;28;20317;-68
2021/07/17 02:51:40;;;;;;;12.68;9.18;;;;;;;;;;5043059;28;20048;-68
2021/07/17 02:54:05;;;;;;;11.55;8.85;;;;;;;;;;5035529;28;20370;-68
2021/07/17 02:56:30;;;;;;;12.98;8.90;;;;;;;;;;5034360;28;20017;-67
2021/07/17 02:58:56;;;;;;;13.27;8.87;;;;;;;;;;5033699;28;20104;-68
2021/07/17 03:01:21;;;;;;;11.97;8.40;;;;;;;;;;5028376;28;20727;-68
2021/07/17 03:03:46;;;;;;;11.68;9.20;;;;;;;;;;5042949;28;20371;-68
2021/07/17 03:06:12;;;;;;;10.70;8.63;;;;;;;;;;5037168;28;20119;-67
2021/07/17 03:08:37;;;;;;;10.93;8.25;;;;;;;;;;5029903;28;20037;-67
2021/07/17 03:11:02;;;;;;;13.50;9.20;;;;;;;;;;5033127;28;20078;-69
2021/07/17 03:13:29;;;;;;;13.10;10.40;;;;;;;;;;5029801;28;20067;-68
2021/07/17 03:15:54;;;;;;;13.68;10.10;;;;;;;;;;5029751;28;20272;-68
2021/07/17 03:18:19;;;;;;;13.83;10.13;;;;;;;;;;5026692;28;20025;-68
2021/07/17 03:20:45;;;;;;;13.33;9.50;;;;;;;;;;5031623;28;20283;-69
2021/07/17 03:23:10;;;;;;;15.27;9.82;;;;;;;;;;5027545;28;20280;-68
2021/07/17 03:25:35;;;;;;;11.18;9.07;;;;;;;;;;5039999;28;20048;-68
2021/07/17 03:28:00;;;;;;;13.32;10.63;;;;;;;;;;5032998;28;20024;-67
2021/07/17 03:30:26;;;;;;;15.30;10.30;;;;;;;;;;5027357;28;20028;-68
2021/07/17 03:32:51;;;;;;;14.30;10.20;;;;;;;;;;5023445;28;20275;-69
2021/07/17 03:35:16;;;;;;;18.67;10.02;;;;;;;;;;5026324;28;20453;-68
2021/07/17 03:37:41;;;;;;;14.55;10.30;;;;;;;;;;5028998;28;20034;-68
2021/07/17 03:40:07;;;;;;;13.15;10.18;;;;;;;;;;5029093;28;20426;-69
2021/07/17 03:42:32;;;;;;;13.63;10.35;;;;;;;;;;5037831;28;20033;-68
2021/07/17 03:44:57;;;;;;;14.27;10.52;;;;;;;;;;5027253;28;20068;-68
2021/07/17 03:47:22;;;;;;;15.55;11.38;;;;;;;;;;5030407;28;20071;-68
2021/07/17 03:49:49;;;;;;;12.18;10.02;;;;;;;;;;5026713;28;20077;-68
2021/07/17 03:52:15;;;;;;;11.52;8.60;;;;;;;;;;5033212;28;20056;-68
2021/07/17 03:54:40;;;;;;;16.65;10.68;;;;;;;;;;5031266;28;20022;-68
2021/07/17 03:57:05;;;;;;;16.55;11.23;;;;;;;;;;5033824;28;20035;-68
2021/07/17 03:59:31;;;;;;;14.00;10.15;;;;;;;;;;5030443;28;20036;-69
2021/07/17 04:01:56;;;;;;;15.43;11.50;;;;;;;;;;5029290;28;20335;-68
2021/07/17 04:04:21;;;;;;;14.60;10.50;;;;;;;;;;5025213;28;20435;-68
2021/07/17 04:06:46;;;;;;;13.90;9.88;;;;;;;;;;5024373;28;20030;-68
2021/07/17 04:09:12;;;;;;;14.38;12.00;;;;;;;;;;5026012;28;20076;-68
2021/07/17 04:11:37;;;;;;;15.00;11.55;;;;;;;;;;5028850;28;20080;-68
2021/07/17 04:14:02;;;;;;;12.25;10.65;;;;;;;;;;5031583;28;20060;-67
2021/07/17 04:16:27;;;;;;;14.18;10.52;;;;;;;;;;5028086;28;20063;-68
2021/07/17 04:18:53;;;;;;;14.27;9.93;;;;;;;;;;5033788;28;20036;-67
2021/07/17 04:21:18;;;;;;;19.48;10.98;;;;;;;;;;5028347;28;20032;-67
2021/07/17 04:23:43;;;;;;;15.32;11.02;;;;;;;;;;5033006;28;20108;-68
2021/07/17 04:26:08;;;;;;;18.48;11.98;;;;;;;;;;5026371;28;20465;-69
2021/07/17 04:28:34;;;;;;;14.07;11.10;;;;;;;;;;5025896;28;20053;-67
2021/07/17 04:31:00;;;;;;;14.65;11.18;;;;;;;;;;5030603;28;20055;-68
2021/07/17 04:33:25;;;;;;;15.70;11.95;;;;;;;;;;5038081;28;20579;-68
2021/07/17 04:35:50;;;;;;;16.20;12.50;;;;;;;;;;5029992;28;20060;-68
2021/07/17 04:38:15;;;;;;;18.40;13.75;;;;;;;;;;5034662;28;20025;-68
2021/07/17 04:40:40;;;;;;;18.85;13.70;;;;;;;;;;5033583;28;20021;-67
2021/07/17 04:43:06;;;;;;;18.30;13.00;;;;;;;;;;5041095;28;20477;-68
2021/07/17 04:45:31;;;;;;;20.83;15.05;;;;;;;;;;5028568;28;20400;-68
2021/07/17 04:47:56;;;;;;;19.02;13.68;;;;;;;;;;5035204;28;20021;-69
2021/07/17 04:50:21;;;;;;;21.48;14.05;;;;;;;;;;5038435;28;20029;-68
2021/07/17 04:52:47;;;;;;;28.38;17.40;;;;;;;;;;5035756;28;20009;-69
2021/07/17 04:55:12;;;;;;;29.38;18.27;;;;;;;;;;5037187;28;20029;-68
2021/07/17 04:57:37;;;;;;;26.55;18.27;;;;;;;;;;5030429;28;20072;-68
2021/07/17 05:00:03;;;;;;;27.23;17.75;;;;;;;;;;5033794;28;20088;-69
2021/07/17 05:02:28;;;;;;;28.70;18.67;;;;;;;;;;5035189;28;20100;-68
2021/07/17 05:04:53;;;;;;;30.00;17.73;;;;;;;;;;5034820;28;20033;-68
2021/07/17 05:07:19;;;;;;;28.52;18.95;;;;;;;;;;5029121;28;20283;-68
2021/07/17 05:09:44;;;;;;;29.37;18.83;;;;;;;;;;5032520;28;20098;-67
2021/07/17 05:12:09;;;;;;;37.27;20.23;;;;;;;;;;5030184;28;20284;-68
2021/07/17 05:14:34;;;;;;;31.08;19.85;;;;;;;;;;5039383;28;20655;-67
2021/07/17 05:16:59;;;;;;;33.05;19.70;;;;;;;;;;5030450;28;20082;-68
2021/07/17 05:19:24;;;;;;;31.42;20.58;;;;;;;;;;5041088;28;20052;-68
2021/07/17 05:21:50;;;;;;;31.95;18.23;;;;;;;;;;5020808;28;20288;-69
2021/07/17 05:24:15;;;;;;;32.83;20.50;;;;;;;;;;5027424;28;20030;-68
2021/07/17 05:26:40;;;;;;;31.23;18.80;;;;;;;;;;5032089;28;20359;-69
2021/07/17 05:29:05;;;;;;;37.08;20.30;;;;;;;;;;5022869;28;20083;-68
2021/07/17 05:31:30;;;;;;;36.47;21.00;;;;;;;;;;5028976;28;20281;-68
2021/07/17 05:33:56;;;;;;;35.53;20.90;;;;;;;;;;5028855;28;20021;-68
2021/07/17 05:36:21;;;;;;;37.53;22.60;;;;;;;;;;5027752;28;20035;-68
2021/07/17 05:38:46;;;;;;;38.25;21.77;;;;;;;;;;5023345;28;20018;-68
2021/07/17 05:41:11;;;;;;;34.63;19.98;;;;;;;;;;5028284;28;20100;-68
2021/07/17 05:43:37;;;;;;;42.17;23.58;;;;;;;;;;5027056;28;20045;-68
2021/07/17 05:46:02;;;;;;;36.70;21.13;;;;;;;;;;5025115;28;20025;-68
2021/07/17 05:48:27;;;;;;;38.50;23.48;;;;;;;;;;5026772;28;20060;-68
2021/07/17 05:50:52;;;;;;;39.33;23.83;;;;;;;;;;5032334;28;20413;-68
2021/07/17 05:53:17;;;;;;;46.28;25.25;;;;;;;;;;5028516;28;20319;-67
2021/07/17 05:55:42;;;;;;;43.88;23.90;;;;;;;;;;5029114;28;20025;-68
2021/07/17 05:58:08;;;;;;;36.90;23.63;;;;;;;;;;5030522;28;20021;-68
2021/07/17 06:00:34;;;;;;;37.95;22.92;;;;;;;;;;5019435;28;20312;-68
2021/07/17 06:02:59;;;;;;;42.42;22.95;;;;;;;;;;5027144;28;20370;-68
2021/07/17 06:05:25;;;;;;;40.38;22.00;;;;;;;;;;5023323;28;20060;-68
2021/07/17 06:07:50;;;;;;;41.03;24.15;;;;;;;;;;5030264;28;20086;-68
2021/07/17 06:10:15;;;;;;;44.13;24.25;;;;;;;;;;5031964;28;20513;-67
2021/07/17 06:12:40;;;;;;;42.72;24.35;;;;;;;;;;5043727;28;20111;-67
2021/07/17 06:15:06;;;;;;;48.00;25.33;;;;;;;;;;5046468;28;20059;-69
2021/07/17 06:17:31;;;;;;;45.78;25.27;;;;;;;;;;5031451;28;20224;-68
2021/07/17 06:19:57;;;;;;;40.65;25.23;;;;;;;;;;5033043;28;20026;-69
2021/07/17 06:22:22;;;;;;;46.55;25.95;;;;;;;;;;5035772;28;20022;-68
2021/07/17 06:24:47;;;;;;;47.50;27.23;;;;;;;;;;5028522;28;20088;-68
2021/07/17 06:27:12;;;;;;;46.63;24.83;;;;;;;;;;5023144;28;20300;-67
2021/07/17 06:29:37;;;;;;;42.67;22.83;;;;;;;;;;5028268;28;20036;-69
2021/07/17 06:32:03;;;;;;;41.38;24.02;;;;;;;;;;5029034;28;20172;-68
2021/07/17 06:34:29;;;;;;;46.88;25.08;;;;;;;;;;5037543;28;20112;-69
2021/07/17 06:36:54;;;;;;;40.13;23.77;;;;;;;;;;5027434;28;20017;-69
2021/07/17 06:39:19;;;;;;;44.80;25.33;;;;;;;;;;5034063;28;20121;-67
2021/07/17 06:41:44;;;;;;;46.45;26.13;;;;;;;;;;5030292;28;20037;-68
2021/07/17 06:44:10;;;;;;;52.58;27.50;;;;;;;;;;5027971;28;20072;-68
2021/07/17 06:46:35;;;;;;;43.75;25.02;;;;;;;;;;5030367;28;20022;-67
2021/07/17 06:49:00;;;;;;;47.40;23.73;;;;;;;;;;5030431;28;20029;-68
2021/07/17 06:51:25;;;;;;;47.58;27.13;;;;;;;;;;5030947;28;20370;-68
2021/07/17 06:53:50;;;;;;;47.78;25.05;;;;;;;;;;5041546;28;20228;-68
2021/07/17 06:56:16;;;;;;;49.25;27.90;;;;;;;;;;5031018;28;20028;-67
2021/07/17 06:58:41;;;;;;;51.25;29.10;;;;;;;;;;5028588;28;20021;-68
2021/07/17 07:01:06;;;;;;;45.25;24.13;;;;;;;;;;5028960;28;20108;-67
2021/07/17 07:03:31;;;;;;;50.83;27.58;;;;;;;;;;5043328;28;20096;-67
2021/07/17 07:05:57;;;;;;;45.50;25.87;;;;;;;;;;5028939;28;20029;-68
2021/07/17 07:08:22;;;;;;;50.45;29.08;;;;;;;;;;5043477;28;20267;-68
2021/07/17 07:10:47;;;;;;;51.97;24.98;;;;;;;;;;5029423;28;20022;-67
2021/07/17 07:13:13;;;;;;;49.05;25.17;;;;;;;;;;5036647;28;20024;-67
2021/07/17 07:15:39;;;;;;;43.33;22.83;;;;;;;;;;5038771;28;20112;-67
2021/07/17 07:18:04;;;;;;;44.35;22.60;;;;;;;;;;5029382;28;20037;-67
2021/07/17 07:20:30;;;;;;;44.45;24.92;;;;;;;;;;5032541;28;20025;-66
2021/07/17 07:22:55;;;;;;;47.35;27.13;;;;;;;;;;5028426;28;20026;-65
2021/07/17 07:25:20;;;;;;;51.45;28.15;;;;;;;;;;5032415;28;20136;-66
2021/07/17 07:27:46;;;;;;;43.42;22.58;;;;;;;;;;5036028;28;20116;-64
2021/07/17 07:30:12;;;;;;;46.22;27.17;;;;;;;;;;5036674;28;20389;-63
2021/07/17 07:32:37;;;;;;;47.60;24.25;;;;;;;;;;5029449;28;20018;-66
2021/07/17 07:35:03;;;;;;;48.95;25.50;;;;;;;;;;5033841;28;20029;-66
2021/07/17 07:37:28;;;;;;;41.10;22.80;;;;;;;;;;5041268;28;20017;-64
2021/07/17 07:39:54;;;;;;;42.63;23.63;;;;;;;;;;5035045;28;20021;-66
2021/07/17 07:42:19;;;;;;;42.50;23.15;;;;;;;;;;5032656;28;20025;-64
2021/07/17 07:44:44;;;;;;;42.57;22.43;;;;;;;;;;5028521;28;20099;-64
2021/07/17 07:47:13;;;;;;;45.60;24.20;;;;;;;;;;5028496;28;20699;-65
2021/07/17 07:49:38;;;;;;;41.70;22.00;;;;;;;;;;5032321;28;20307;-65
2021/07/17 07:52:03;;;;;;;40.20;21.20;;;;;;;;;;5029303;28;20060;-64
2021/07/17 07:54:29;;;;;;;39.08;21.48;;;;;;;;;;5029647;28;20021;-65
2021/07/17 07:56:54;;;;;;;42.30;23.37;;;;;;;;;;5029690;28;20014;-64
2021/07/17 07:59:19;;;;;;;43.15;23.27;;;;;;;;;;5039619;28;20332;-65
2021/07/17 08:01:44;;;;;;;37.43;22.87;;;;;;;;;;5036725;28;20025;-65
2021/07/17 08:04:11;;;;;;;39.78;20.50;;;;;;;;;;5043752;28;20306;-64
2021/07/17 08:06:36;;;;;;;38.15;21.13;;;;;;;;;;5038951;28;20045;-66
2021/07/17 08:09:01;;;;;;;38.60;21.50;;;;;;;;;;5021333;28;20029;-65
2021/07/17 08:11:26;;;;;;;35.42;21.45;;;;;;;;;;5031677;28;20424;-65
2021/07/17 08:13:52;;;;;;;34.57;21.37;;;;;;;;;;5035709;28;20365;-66
2021/07/17 08:16:17;;;;;;;37.17;20.10;;;;;;;;;;5036961;28;20337;-66
2021/07/17 08:18:42;;;;;;;38.15;21.30;;;;;;;;;;5033800;28;20135;-68
2021/07/17 08:21:07;;;;;;;33.92;20.77;;;;;;;;;;5036563;28;20063;-66
2021/07/17 08:23:32;;;;;;;36.07;22.43;;;;;;;;;;5036377;28;20276;-66
2021/07/17 08:25:57;;;;;;;43.63;22.73;;;;;;;;;;5033478;28;20417;-66
2021/07/17 08:28:23;;;;;;;34.50;20.17;;;;;;;;;;5032790;28;20272;-67
2021/07/17 08:30:48;;;;;;;35.63;21.50;;;;;;;;;;5033577;28;20379;-64
2021/07/17 08:33:13;;;;;;;35.97;21.20;;;;;;;;;;5033585;28;20029;-64
2021/07/17 08:35:38;;;;;;;37.67;22.58;;;;;;;;;;5044693;28;20435;-64
2021/07/17 08:38:04;;;;;;;39.42;21.95;;;;;;;;;;5032409;28;20093;-64
2021/07/17 08:40:29;;;;;;;35.53;21.20;;;;;;;;;;5027717;28;20034;-63
2021/07/17 08:42:55;;;;;;;36.60;21.57;;;;;;;;;;5026822;28;20029;-65
2021/07/17 08:45:21;;;;;;;35.35;20.42;;;;;;;;;;5027618;28;20303;-64
2021/07/17 08:47:46;;;;;;;32.92;20.95;;;;;;;;;;5020550;28;20017;-63
2021/07/17 08:50:13;;;;;;;36.33;22.13;;;;;;;;;;5032677;28;20496;-64
2021/07/17 08:52:38;;;;;;;35.05;20.65;;;;;;;;;;5029138;28;20021;-65
2021/07/17 08:55:04;;;;;;;34.72;20.83;;;;;;;;;;5025622;28;20032;-64
2021/07/17 08:57:30;;;;;;;35.92;22.90;;;;;;;;;;5033665;28;20030;-64
2021/07/17 08:59:55;;;;;;;39.33;23.70;;;;;;;;;;5031070;28;20031;-65
2021/07/17 09:02:21;;;;;;;36.20;21.13;;;;;;;;;;5028561;28;20030;-65
2021/07/17 09:04:46;;;;;;;32.80;19.60;;;;;;;;;;5030493;28;20296;-65
2021/07/17 09:07:11;;;;;;;35.63;22.30;;;;;;;;;;5030644;28;20669;-65
2021/07/17 09:09:38;;;;;;;34.50;19.02;;;;;;;;;;5034215;28;20346;-66
2021/07/17 09:12:19;;;;;;;32.47;19.67;;;;;;;;;;5042862;28;20028;-63
2021/07/17 09:14:45;;;;;;;32.80;19.50;;;;;;;;;;5032518;28;20020;-63
2021/07/17 09:17:10;;;;;;;34.95;20.83;;;;;;;;;;5030964;28;20025;-65
2021/07/17 09:19:50;;;;;;;31.52;20.67;;;;;;;;;;5039187;28;20439;-65
2021/07/17 09:22:29;;;;;;;35.78;22.67;;;;;;;;;;5036175;28;20029;-65
2021/07/17 09:25:08;;;;;;;36.13;21.00;;;;;;;;;;5023921;28;20041;-66
2021/07/17 09:27:33;;;;;;;35.40;20.70;;;;;;;;;;5025288;28;20374;-65
2021/07/17 09:29:58;;;;;;;30.47;20.20;;;;;;;;;;5043915;28;20420;-65
2021/07/17 09:32:23;;;;;;;29.60;19.13;;;;;;;;;;5037220;28;20318;-64
2021/07/17 09:34:49;;;;;;;26.00;17.60;;;;;;;;;;5028562;28;20263;-65
2021/07/17 09:37:14;;;;;;;26.48;16.80;;;;;;;;;;5033528;28;20029;-66
2021/07/17 09:39:44;;;;;;;27.40;16.90;;;;;;;;;;5035603;28;20024;-65
2021/07/17 09:42:12;;;;;;;29.48;17.77;;;;;;;;;;5035216;28;20029;-65
2021/07/17 09:44:37;;;;;;;26.23;16.23;;;;;;;;;;5032264;28;20057;-66
2021/07/17 09:47:23;;;;;;;26.35;16.08;;;;;;;;;;5030374;28;20042;-64
2021/07/17 09:49:49;;;;;;;22.40;15.13;;;;;;;;;;5030206;28;20025;-66
2021/07/17 09:52:21;;;;;;;22.70;15.25;;;;;;;;;;5030420;28;20413;-65
2021/07/17 09:55:01;;;;;;;24.17;15.90;;;;;;;;;;5028384;28;20033;-66
2021/07/17 09:57:29;;;;;;;21.55;14.48;;;;;;;;;;5033047;28;20065;-65
2021/07/17 10:00:03;;;;;;;24.08;14.40;;;;;;;;;;5030401;28;20032;-65
2021/07/17 10:02:29;;;;;;;24.33;14.75;;;;;;;;;;5028078;28;20144;-65
2021/07/17 10:04:55;;;;;;;25.55;14.35;;;;;;;;;;5030304;28;20385;-65
2021/07/17 10:07:20;;;;;;;27.80;14.57;;;;;;;;;;5027321;28;20033;-64
2021/07/17 10:09:49;;;;;;;23.02;14.40;;;;;;;;;;5030054;28;20334;-64
2021/07/17 10:12:14;;;;;;;22.70;14.85;;;;;;;;;;5029899;28;20029;-68
2021/07/17 10:14:39;;;;;;;24.00;14.05;;;;;;;;;;5032683;28;20040;-68
2021/07/17 10:17:12;;;;;;;25.23;14.20;;;;;;;;;;5036763;28;20065;-68
2021/07/17 10:19:38;;;;;;;27.42;14.02;;;;;;;;;;5033057;28;20537;-66
2021/07/17 10:22:04;;;;;;;22.48;15.65;;;;;;;;;;5030109;28;20029;-67
2021/07/17 10:24:29;;;;;;;30.33;17.17;;;;;;;;;;5031019;28;20432;-67
2021/07/17 10:26:55;;;;;;;27.45;16.00;;;;;;;;;;5032566;28;20036;-68
2021/07/17 10:29:21;;;;;;;25.02;15.20;;;;;;;;;;5030479;28;20037;-68
2021/07/17 10:31:48;;;;;;;29.85;16.73;;;;;;;;;;5031199;28;20020;-68
2021/07/17 10:34:13;;;;;;;25.25;16.27;;;;;;;;;;5030226;28;20022;-67
2021/07/17 10:36:45;;;;;;;28.80;17.30;;;;;;;;;;5041811;28;20091;-68
2021/07/17 10:39:10;;;;;;;29.35;17.55;;;;;;;;;;5031474;28;20385;-66
2021/07/17 10:41:36;;;;;;;28.08;18.20;;;;;;;;;;5036316;28;20017;-68
2021/07/17 10:44:02;;;;;;;33.47;18.52;;;;;;;;;;5027921;28;20164;-68
2021/07/17 10:46:32;;;;;;;33.40;19.00;;;;;;;;;;5038452;28;20040;-67
2021/07/17 10:48:58;;;;;;;30.60;18.38;;;;;;;;;;5028755;28;20025;-67
2021/07/17 10:51:23;;;;;;;30.60;17.60;;;;;;;;;;5040117;28;20033;-67
2021/07/17 10:53:58;;;;;;;33.30;18.97;;;;;;;;;;5040789;28;20040;-68
2021/07/17 10:56:29;;;;;;;30.33;18.55;;;;;;;;;;5024685;28;20272;-69
2021/07/17 10:58:58;;;;;;;34.90;21.27;;;;;;;;;;5039586;28;20384;-68
2021/07/17 11:01:23;;;;;;;34.25;19.50;;;;;;;;;;5036155;28;20950;-68
2021/07/17 11:03:49;;;;;;;34.53;19.63;;;;;;;;;;5027183;28;20021;-69
2021/07/17 11:06:31;;;;;;;34.65;20.10;;;;;;;;;;5029686;28;20029;-70
2021/07/17 11:08:57;;;;;;;32.00;18.58;;;;;;;;;;5027665;28;20033;-68
2021/07/17 11:11:29;;;;;;;35.17;20.33;;;;;;;;;;5029554;28;20032;-68
2021/07/17 11:14:20;;;;;;;33.75;19.60;;;;;;;;;;5033999;28;20024;-68
2021/07/17 11:16:46;;;;;;;31.23;18.30;;;;;;;;;;5026170;28;20021;-69
2021/07/17 11:19:15;;;;;;;33.50;18.63;;;;;;;;;;5026159;28;20041;-68
2021/07/17 11:21:40;;;;;;;33.72;19.15;;;;;;;;;;5029193;28;20013;-68
2021/07/17 11:24:06;;;;;;;34.92;19.52;;;;;;;;;;5032478;28;20037;-68
2021/07/17 11:26:31;;;;;;;32.78;18.45;;;;;;;;;;5029186;28;20090;-70
2021/07/17 11:29:03;;;;;;;34.80;19.03;;;;;;;;;;5029961;28;20059;-67
2021/07/17 11:31:28;;;;;;;32.25;17.63;;;;;;;;;;5034066;28;20303;-68
2021/07/17 11:34:17;;;;;;;34.05;19.40;;;;;;;;;;5026251;28;20400;-69
2021/07/17 11:36:46;;;;;;;33.83;18.90;;;;;;;;;;5028063;28;20030;-66
2021/07/17 11:39:16;;;;;;;32.35;20.27;;;;;;;;;;5041026;28;20033;-67
2021/07/17 11:41:41;;;;;;;37.40;21.95;;;;;;;;;;5031753;28;20034;-68
2021/07/17 11:44:06;;;;;;;40.65;21.30;;;;;;;;;;5027195;28;20577;-67
2021/07/17 11:46:32;;;;;;;37.40;19.70;;;;;;;;;;5033511;28;20037;-68
2021/07/17 11:49:00;;;;;;;34.75;17.92;;;;;;;;;;5030388;28;20032;-68
2021/07/17 11:51:25;;;;;;;38.45;19.08;;;;;;;;;;5031998;28;21707;-66
2021/07/17 11:53:50;;;;;;;35.55;19.08;;;;;;;;;;5026562;28;20069;-69
2021/07/17 11:56:18;;;;;;;34.57;20.17;;;;;;;;;;5031615;28;20046;-67
2021/07/17 11:58:43;;;;;;;33.35;19.80;;;;;;;;;;5026862;28;20361;-68
2021/07/17 12:01:14;;;;;;;30.10;17.40;;;;;;;;;;5035673;28;20025;-68
2021/07/17 12:03:39;;;;;;;32.10;18.38;;;;;;;;;;5029660;28;20035;-69
2021/07/17 12:06:05;;;;;;;30.77;17.30;;;;;;;;;;5028424;28;20556;-68
2021/07/17 12:08:32;;;;;;;29.45;18.33;;;;;;;;;;5027035;28;20108;-69
2021/07/17 12:10:58;;;;;;;32.47;17.42;;;;;;;;;;5030705;28;20112;-68
2021/07/17 12:13:24;;;;;;;31.20;16.75;;;;;;;;;;5036315;28;20044;-67
2021/07/17 12:15:49;;;;;;;31.38;17.15;;;;;;;;;;5032306;28;20025;-68
2021/07/17 12:18:16;;;;;;;30.33;18.88;;;;;;;;;;5028968;28;20071;-67
2021/07/17 12:20:43;;;;;;;33.97;17.25;;;;;;;;;;5029755;28;20031;-66
2021/07/17 12:23:13;;;;;;;28.80;16.73;;;;;;;;;;5035970;28;20756;-68
2021/07/17 12:25:39;;;;;;;36.97;17.85;;;;;;;;;;5032436;28;20112;-68
2021/07/17 12:28:07;;;;;;;30.33;18.58;;;;;;;;;;5029530;28;20159;-68
2021/07/17 12:30:40;;;;;;;34.65;18.20;;;;;;;;;;5039031;28;20368;-68
2021/07/17 12:33:12;;;;;;;33.08;19.00;;;;;;;;;;5039970;28;20407;-68
2021/07/17 12:35:37;;;;;;;28.48;18.00;;;;;;;;;;5027585;28;20108;-68
2021/07/17 12:38:17;;;;;;;29.55;16.20;;;;;;;;;;5043792;28;20511;-68
2021/07/17 12:40:47;;;;;;;31.58;16.13;;;;;;;;;;5025835;28;20109;-67
2021/07/17 12:43:19;;;;;;;33.08;16.48;;;;;;;;;;5039346;28;20083;-66
2021/07/17 12:45:53;;;;;;;26.30;15.13;;;;;;;;;;5030729;28;20626;-66
2021/07/17 12:48:18;;;;;;;30.77;16.77;;;;;;;;;;5031122;28;20037;-66
2021/07/17 12:50:43;;;;;;;25.73;14.93;;;;;;;;;;5045270;28;20886;-67
2021/07/17 12:53:12;;;;;;;22.47;14.70;;;;;;;;;;5038831;28;20271;-66
2021/07/17 12:55:40;;;;;;;26.13;14.35;;;;;;;;;;5025182;28;20748;-66
2021/07/17 12:58:06;;;;;;;32.30;16.33;;;;;;;;;;5021620;28;20055;-67
2021/07/17 13:00:31;;;;;;;28.92;15.30;;;;;;;;;;5032023;28;20060;-67
2021/07/17 13:02:57;;;;;;;29.90;15.15;;;;;;;;;;5031962;28;20297;-66
2021/07/17 13:05:41;;;;;;;22.60;13.88;;;;;;;;;;5040254;28;20036;-66
2021/07/17 13:08:06;;;;;;;30.15;14.90;;;;;;;;;;5028205;28;20092;-66
2021/07/17 13:10:35;;;;;;;28.25;15.10;;;;;;;;;;5032002;28;20018;-67
2021/07/17 13:13:07;;;;;;;25.25;14.15;;;;;;;;;;5031689;28;20049;-67
2021/07/17 13:15:32;;;;;;;25.25;14.85;;;;;;;;;;5033447;28;20112;-67
2021/07/17 13:17:57;;;;;;;22.98;13.63;;;;;;;;;;5029886;28;20656;-67
2021/07/17 13:20:23;;;;;;;23.70;13.80;;;;;;;;;;5028299;28;20021;-67
2021/07/17 13:22:48;;;;;;;24.67;14.30;;;;;;;;;;5034626;28;20393;-67
2021/07/17 13:25:15;;;;;;;27.15;14.85;;;;;;;;;;5039733;28;20107;-66
2021/07/17 13:27:40;;;;;;;21.42;13.65;;;;;;;;;;5024826;28;20045;-67
2021/07/17 13:30:06;;;;;;;18.55;13.35;;;;;;;;;;5031401;28;20079;-65
2021/07/17 13:32:33;;;;;;;21.92;13.07;;;;;;;;;;5030001;28;20430;-64
2021/07/17 13:35:13;;;;;;;19.40;12.20;;;;;;;;;;5029530;28;20156;-64
2021/07/17 13:37:39;;;;;;;16.48;11.35;;;;;;;;;;5025851;28;20219;-64
2021/07/17 13:40:06;;;;;;;17.53;11.00;;;;;;;;;;5044228;28;20092;-65
2021/07/17 13:42:31;;;;;;;18.70;11.80;;;;;;;;;;5035523;28;20272;-64
2021/07/17 13:45:10;;;;;;;17.35;10.55;;;;;;;;;;5029318;28;20064;-67
2021/07/17 13:47:42;;;;;;;17.90;11.15;;;;;;;;;;5031920;28;20029;-68
2021/07/17 13:50:20;;;;;;;19.73;10.80;;;;;;;;;;5047104;28;20132;-68
2021/07/17 13:52:57;;;;;;;19.23;10.25;;;;;;;;;;5027007;28;20061;-68
2021/07/17 13:55:39;;;;;;;18.15;10.50;;;;;;;;;;5030345;28;20036;-67
2021/07/17 13:58:24;;;;;;;17.15;10.55;;;;;;;;;;5027074;28;20025;-67
2021/07/17 14:00:56;;;;;;;15.45;9.52;;;;;;;;;;5032371;28;20397;-67
2021/07/17 14:03:23;;;;;;;16.75;10.15;;;;;;;;;;5033624;28;20191;-67
2021/07/17 14:06:07;;;;;;;15.68;10.20;;;;;;;;;;5031617;28;20076;-69
2021/07/17 14:08:34;;;;;;;15.57;9.77;;;;;;;;;;5032035;28;20025;-68
2021/07/17 14:11:00;;;;;;;13.77;9.73;;;;;;;;;;5032162;28;20108;-68
2021/07/17 14:13:25;;;;;;;14.75;10.38;;;;;;;;;;5029493;28;20120;-65
2021/07/17 14:15:51;;;;;;;15.32;10.27;;;;;;;;;;5031005;28;20447;-66
2021/07/17 14:18:16;;;;;;;13.38;9.15;;;;;;;;;;5025626;28;20050;-65